Flight Track Log - Related Links

Times and Time Zones

All times are in EDT time to prevent confusion due to time zone crossing. See the UAL4696 flight status page for this flight to view local times or setup timezone preferences in your user account.

Time Position Orientation Groundspeed Altitude Reporting Facility
EDT Latitude Longitude Course Direction KTS MPH feet Rate Location/Type
Sun 13:37:57 41.4172 -81.8375 359° North 169 194 1,500  Level Cleveland Center
Sun 13:38:52 41.4653 -81.8383 359° North 223 257 3,000 1,700 Climbing Cleveland Center
Sun 13:39:57 41.5147 -81.8975 318° Northwest 234 269 4,900 2,016 Climbing Cleveland Center
Sun 13:40:57 41.4761 -81.9772 237° Southwest 204 235 7,200 2,200 Climbing Cleveland Center
Sun 13:41:57 41.4336 -82.0567 235° Southwest 231 266 9,300 1,850 Climbing Cleveland Center
Sun 13:42:57 41.3906 -82.1442 237° Southwest 272 313 10,900 1,250 Climbing Cleveland Center
Sun 13:43:57 41.3456 -82.2425 239° Southwest 308 354 11,800 1,150 Climbing Cleveland Center
Sun 13:44:57 41.2939 -82.3464 237° Southwest 338 389 13,200 1,400 Climbing Cleveland Center
Sun 13:45:57 41.2422 -82.4500 236° Southwest 338 389 14,600 1,450 Climbing Cleveland Center
Sun 13:46:57 41.1925 -82.5533 237° Southwest 338 389 16,100 1,350 Climbing Cleveland Center
Sun 13:47:57 41.1472 -82.6458 237° Southwest 338 389 17,300 1,339 Climbing Cleveland Center
Sun 13:48:58 41.1014 -82.7544 241° Southwest 343 395 18,800 1,500 Climbing Cleveland Center
Sun 13:49:57 41.0842 -82.8778 260° West 334 384 20,300 1,563 Climbing Cleveland Center
Sun 13:50:57 41.0650 -83.0039 259° West 344 396 21,900 1,550 Climbing Cleveland Center
Sun 13:51:57 41.0311 -83.1211 249° West 350 403 23,400 1,500 Climbing Cleveland Center
Sun 13:52:57 40.9953 -83.2353 247° West 350 403 24,900 1,510 Climbing Cleveland Center
Sun 13:54:28 40.9308 -83.4061 244° Southwest 340 391 27,200 1,412 Climbing Indianapolis Center
Sun 13:55:30 40.8922 -83.5178 245° Southwest 337 388 28,500 1,161 Climbing Indianapolis Center
Sun 13:56:32 40.8511 -83.6286 244° Southwest 335 386 29,600 1,113 Climbing Indianapolis Center
Sun 13:57:34 40.8031 -83.7614 244° Southwest 342 394 30,800 1,113 Climbing Indianapolis Center
Sun 13:58:36 40.7614 -83.8781 245° Southwest 348 400 31,900 1,073 Climbing Indianapolis Center
Sun 13:59:37 40.7175 -83.9964 244° Southwest 357 411 33,000 976 Climbing Indianapolis Center
Sun 14:00:39 40.6756 -84.1167 245° Southwest 359 413 33,900 484 Climbing Indianapolis Center
Sun 14:01:41 40.6633 -84.2508 263° West 372 428 34,000 48 Climbing Indianapolis Center
Sun 14:02:43 40.6539 -84.3950 265° West 392 451 34,000  Level Indianapolis Center
Sun 14:03:28 40.6464 -84.5006 265° West 403 464 34,000  Level Chicago Center
Sun 14:04:30 40.6350 -84.6606 265° West 414 476 34,000  Level Chicago Center
Sun 14:05:32 40.6231 -84.8356 265° West 411 473 34,000  Level Chicago Center
Sun 14:05:48 40.6206 -84.8750 265° West 412 474 34,000  Level Indianapolis Center
Sun 14:06:50 40.6103 -85.0144 264° West 417 480 34,000  Level Indianapolis Center
Sun 14:07:36 40.6022 -85.1417 265° West 418 481 34,000  Level Chicago Center
Sun 14:08:38 40.5897 -85.2944 264° West 418 481 34,000  Level Chicago Center
Sun 14:09:40 40.5786 -85.4497 265° West 422 486 34,000  Level Chicago Center
Sun 14:10:42 40.5669 -85.6050 264° West 425 489 34,000  Level Chicago Center
Sun 14:11:44 40.5533 -85.7872 264° West 427 491 34,000  Level Chicago Center
Sun 14:12:46 40.5408 -85.9439 264° West 430 495 34,000 290 Level Chicago Center
Sun 14:13:48 40.5281 -86.1003 264° West 430 495 34,600 677 Climbing Chicago Center
Sun 14:14:50 40.5164 -86.2525 264° West 422 486 35,400 677 Climbing Chicago Center
Sun 14:15:52 40.5033 -86.4028 264° West 416 479 36,000 290 Climbing Chicago Center
Sun 14:16:54 40.4894 -86.5594 263° West 426 490 36,000  Level Chicago Center
Sun 14:17:56 40.4756 -86.7392 264° West 427 491 36,000  Level Chicago Center
Sun 14:18:58 40.4619 -86.8956 264° West 431 496 36,000  Level Chicago Center
Sun 14:20:00 40.4472 -87.0567 263° West 438 504 36,000  Level Chicago Center
Sun 14:21:02 40.4339 -87.2131 264° West 435 501 36,000  Level Chicago Center
Sun 14:22:04 40.4189 -87.3717 263° West 435 501 36,000  Level Chicago Center
Sun 14:23:06 40.4050 -87.5308 264° West 435 501 36,000  Level Chicago Center
Sun 14:24:08 40.3894 -87.6894 263° West 439 505 36,000  Level Chicago Center
Sun 14:25:10 40.3722 -87.8756 263° West 431 496 36,000  Level Chicago Center
Sun 14:26:12 40.3567 -88.0306 263° West 432 497 36,000  Level Chicago Center
Sun 14:27:14 40.3417 -88.1847 263° West 428 493 36,000  Level Chicago Center
Sun 14:28:16 40.3264 -88.3386 263° West 427 491 36,000  Level Chicago Center
Sun 14:29:18 40.3100 -88.4911 262° West 425 489 36,000  Level Chicago Center
Sun 14:30:20 40.2925 -88.6689 263° West 426 490 36,000  Level Chicago Center
Sun 14:31:22 40.2761 -88.8225 262° West 425 489 36,000  Level Chicago Center
Sun 14:32:25 40.2606 -88.9767 263° West 427 491 36,000  Level Chicago Center
Sun 14:33:26 40.2442 -89.1297 262° West 426 490 36,000  Level Chicago Center
Sun 14:34:29 40.2258 -89.2864 261° West 434 499 36,000  Level Chicago Center
Sun 14:35:31 40.2078 -89.4394 261° West 428 493 36,000  Level Chicago Center
Sun 14:36:33 40.1914 -89.5906 262° West 421 484 36,000  Level Chicago Center
Sun 14:37:35 40.1728 -89.7694 262° West 411 473 36,000  Level Chicago Center
Sun 14:38:37 40.1553 -89.9200 261° West 416 479 36,000  Level Chicago Center
Sun 14:39:39 40.1383 -90.0683 262° West 413 475 36,000  Level Chicago Center
Sun 14:40:41 40.1208 -90.2197 261° West 419 482 36,000  Level Chicago Center
Sun 14:41:43 40.1019 -90.3725 261° West 422 486 36,000  Level Chicago Center
Sun 14:42:23 40.0908 -90.4667 261° West 426 490 36,000  Level Kansas City Center
Sun 14:43:25 40.0689 -90.6519 261° West 428 493 36,000  Level Kansas City Center
Sun 14:44:27 40.0497 -90.8047 261° West 429 494 36,000  Level Kansas City Center
Sun 14:45:29 40.0308 -90.9639 261° West 432 497 36,000  Level Kansas City Center
Sun 14:46:31 40.0106 -91.1186 260° West 435 501 36,000  Level Kansas City Center
Sun 14:47:33 39.9914 -91.2733 261° West 436 502 36,000  Level Kansas City Center
Sun 14:48:35 39.9703 -91.4297 260° West 439 505 36,000  Level Kansas City Center
Sun 14:49:37 39.9506 -91.5803 260° West 430 495 36,000  Level Kansas City Center
Sun 14:50:39 39.9281 -91.7597 261° West 423 487 36,000  Level Kansas City Center
Sun 14:51:41 39.9086 -91.9100 260° West 423 487 36,000  Level Kansas City Center
Sun 14:52:43 39.8878 -92.0617 260° West 424 488 36,000  Level Kansas City Center
Sun 14:53:45 39.8683 -92.2119 260° West 424 488 36,000  Level Kansas City Center
Sun 14:54:47 39.8483 -92.3644 260° West 426 490 36,000  Level Kansas City Center
Sun 14:55:49 39.8267 -92.5167 260° West 428 493 36,000  Level Kansas City Center
Sun 14:56:51 39.8014 -92.6969 260° West 425 489 36,000 -774 Level Kansas City Center
Sun 14:57:53 39.7803 -92.8506 260° West 428 493 34,400 -2,274 Descending Kansas City Center
Sun 14:58:55 39.7586 -93.0006 259° West 426 490 31,300 -3,194 Descending Kansas City Center
Sun 14:59:57 39.7367 -93.1528 259° West 429 494 27,800 -3,435 Descending Kansas City Center
Sun 15:00:59 39.7150 -93.3014 259° West 424 488 24,200 -3,242 Descending Kansas City Center
Sun 15:02:01 39.6892 -93.4733 259° West 412 474 21,100 -3,387 Descending Kansas City Center
Sun 15:03:03 39.6683 -93.6139 259° West 403 464 17,200 -3,387 Descending Kansas City Center
Sun 15:04:05 39.6492 -93.7519 260° West 391 450 14,100 -2,613 Descending Kansas City Center
Sun 15:05:07 39.6297 -93.8739 258° West 361 415 11,800 -1,984 Descending Kansas City Center
Sun 15:06:09 39.5753 -93.9844 237° Southwest 319 367 10,000 -1,452 Descending Kansas City Center
Sun 15:07:11 39.5339 -94.0672 237° Southwest 284 327 8,800 -1,306 Descending Kansas City Center
Sun 15:08:13 39.5081 -94.1678 252° West 265 305 7,300 -1,065 Descending Kansas City Center
Sun 15:09:15 39.4914 -94.2514 256° West 253 291 6,600 -629 Descending Kansas City Center
Sun 15:10:17 39.4717 -94.3472 255° West 247 284 6,000 -290 Descending Kansas City Center
Sun 15:11:19 39.4561 -94.4303 256° West 248 285 6,000 -242 Level Kansas City Center
Sun 15:12:21 39.4361 -94.5272 255° West 249 287 5,500 -774 Descending Kansas City Center
Sun 15:13:23 39.4194 -94.6081 255° West 245 282 4,400 -1,210 Descending Kansas City Center
Sun 15:14:25 39.3828 -94.6811 237° Southwest 222 255 3,000 -1,210 Descending Kansas City Center
Sun 15:15:27 39.3456 -94.6900 190° South 136 157 1,900 -919 Descending Kansas City Center
Sun 15:16:29 39.3078 -94.7017 193° South 125 144 1,100 -774 Descending Kansas City Center
Sun 15:18:00 39.2976 -94.7139 194° South  Level Estimated

Login

Don't have an account? Register now (free) for customized features, flight alerts, and more!